Time,TemperatureF,DewpointF,PressureIn,WindDirection,WindDirectionDegrees,WindSpeedMPH,WindSpeedGustMPH,Humidity,HourlyPrecipIn,Conditions,Clouds,dailyrainin,SolarRadiationWatts/m^2,SoftwareType,DateUTC
2013-11-06 00:02:00,55.8,53.8,29.86,SW,219,9.4,25.3,93,0.00,CLR,,0.09,0.0,WeatherDisplay:10.37,2013-11-06 06:02:00,
2013-11-06 00:07:00,55.9,53.9,29.87,SSW,200,10.3,16.1,93,0.00,CLR,,0.09,0.0,WeatherDisplay:10.37,2013-11-06 06:07:00,
2013-11-06 00:12:00,56.0,54.0,29.87,SSW,207,11.4,20.0,93,0.00,CLR,,0.09,0.0,WeatherDisplay:10.37,2013-11-06 06:12:00,
2013-11-06 00:17:00,56.0,53.7,29.86,SW,223,9.8,15.0,92,0.00,CLR,,0.09,0.0,WeatherDisplay:10.37,2013-11-06 06:17:00,
2013-11-06 00:22:00,56.1,53.8,29.86,SSW,195,10.9,21.0,92,0.00,CLR,,0.09,0.0,WeatherDisplay:10.37,2013-11-06 06:22:00,
2013-11-06 00:27:00,56.1,53.8,29.86,South,181,9.4,19.6,92,0.00,CLR,,0.10,0.0,WeatherDisplay:10.37,2013-11-06 06:27:00,
2013-11-06 00:32:00,56.0,53.7,29.86,SSW,200,8.5,12.0,92,0.01,RA,,0.10,0.0,WeatherDisplay:10.37,2013-11-06 06:32:00,
2013-11-06 00:37:00,56.0,54.0,29.86,South,172,9.0,15.0,93,0.01,RA,,0.10,0.0,WeatherDisplay:10.37,2013-11-06 06:37:00,
2013-11-06 00:42:00,56.0,54.0,29.86,SSE,167,12.5,17.0,93,0.01,CLR,,0.10,0.0,WeatherDisplay:10.37,2013-11-06 06:42:00,
2013-11-06 00:47:00,56.0,54.0,29.85,South,191,9.6,18.4,93,0.01,CLR,,0.10,0.0,WeatherDisplay:10.37,2013-11-06 06:47:00,
2013-11-06 00:52:00,56.0,54.0,29.85,SSW,210,10.2,14.0,93,0.01,CLR,,0.10,0.0,WeatherDisplay:10.37,2013-11-06 06:52:00,
2013-11-06 00:57:00,56.0,54.0,29.85,SSE,148,6.9,13.0,93,0.01,CLR,,0.10,0.0,WeatherDisplay:10.37,2013-11-06 06:57:00,
2013-11-06 01:02:00,56.1,54.1,29.84,SSE,158,9.9,20.7,93,0.02,RA,,0.11,0.0,WeatherDisplay:10.37,2013-11-06 07:02:00,
2013-11-06 01:07:00,56.2,54.2,29.84,SSW,198,12.0,18.4,93,0.02,RA,,0.11,0.0,WeatherDisplay:10.37,2013-11-06 07:07:00,
2013-11-06 01:12:00,56.2,54.2,29.85,SSW,213,10.4,18.0,93,0.02,,,0.11,0.0,WeatherDisplay:10.37,2013-11-06 07:12:00,
2013-11-06 01:17:00,56.2,54.2,29.84,SSE,165,8.9,17.3,93,0.02,CLR,,0.11,0.0,WeatherDisplay:10.37,2013-11-06 07:17:00,
2013-11-06 01:22:00,56.3,54.3,29.84,SSW,211,9.5,16.1,93,0.02,CLR,,0.11,0.0,WeatherDisplay:10.37,2013-11-06 07:22:00,
2013-11-06 01:27:00,56.3,54.3,29.83,SW,224,7.5,16.1,93,0.02,CLR,,0.11,0.0,WeatherDisplay:10.37,2013-11-06 07:27:00,
2013-11-06 01:32:00,56.3,54.3,29.83,SSW,209,12.2,17.0,93,0.01,CLR,,0.11,0.0,WeatherDisplay:10.37,2013-11-06 07:32:00,
2013-11-06 01:37:00,56.3,54.3,29.83,SSW,198,6.4,13.0,93,0.01,CLR,,0.11,0.0,WeatherDisplay:10.37,2013-11-06 07:37:00,
2013-11-06 01:42:00,56.3,54.3,29.83,South,171,8.9,12.0,93,0.01,CLR,,0.11,0.0,WeatherDisplay:10.37,2013-11-06 07:42:00,
2013-11-06 01:47:00,56.3,54.3,29.83,SSW,198,6.2,17.3,93,0.01,CLR,,0.11,0.0,WeatherDisplay:10.37,2013-11-06 07:47:00,
2013-11-06 01:52:00,56.3,54.3,29.83,SSW,200,8.5,13.0,93,0.01,CLR,,0.11,0.0,WeatherDisplay:10.37,2013-11-06 07:52:00,
2013-11-06 01:57:00,56.3,54.3,29.82,South,186,9.4,15.0,93,0.02,RA,,0.12,0.0,WeatherDisplay:10.37,2013-11-06 07:57:00,
2013-11-06 02:02:00,56.3,54.3,29.82,South,186,12.5,20.7,93,0.01,RA,,0.12,0.0,WeatherDisplay:10.37,2013-11-06 08:02:00,
2013-11-06 02:07:00,56.3,54.3,29.82,SSW,194,9.5,12.7,93,0.01,,,0.12,0.0,WeatherDisplay:10.37,2013-11-06 08:07:00,
2013-11-06 02:12:00,56.3,54.3,29.82,SW,225,6.9,11.0,93,0.02,RA,,0.14,0.0,WeatherDisplay:10.37,2013-11-06 08:12:00,
2013-11-06 02:17:00,56.3,54.3,29.82,South,169,7.9,11.5,93,0.02,RA,,0.14,0.0,WeatherDisplay:10.37,2013-11-06 08:17:00,
2013-11-06 02:22:00,56.3,54.3,29.82,SSW,207,7.2,13.0,93,0.04,RA,,0.15,0.0,WeatherDisplay:10.37,2013-11-06 08:22:00,
2013-11-06 02:27:00,56.3,54.3,29.82,SSW,194,7.0,13.8,93,0.04,RA,,0.15,0.0,WeatherDisplay:10.37,2013-11-06 08:27:00,
2013-11-06 02:32:00,56.3,54.3,29.82,SW,216,7.8,15.0,93,0.04,CLR,,0.15,0.0,WeatherDisplay:10.37,2013-11-06 08:32:00,
2013-11-06 02:37:00,56.4,54.4,29.81,SW,214,7.8,11.5,93,0.04,CLR,,0.15,0.0,WeatherDisplay:10.37,2013-11-06 08:37:00,
2013-11-06 02:42:00,56.4,54.4,29.81,South,181,5.6,12.7,93,0.04,CLR,,0.15,0.0,WeatherDisplay:10.37,2013-11-06 08:42:00,
2013-11-06 02:47:00,56.4,54.4,29.81,SSW,198,7.0,10.4,93,0.04,CLR,,0.15,0.0,WeatherDisplay:10.37,2013-11-06 08:47:00,
2013-11-06 02:52:00,56.4,54.4,29.81,SSW,207,6.3,10.4,93,0.04,CLR,,0.15,0.0,WeatherDisplay:10.37,2013-11-06 08:52:00,
2013-11-06 02:57:00,56.5,54.5,29.81,SW,222,7.1,17.3,93,0.04,RA,,0.16,0.0,WeatherDisplay:10.37,2013-11-06 08:57:00,
2013-11-06 03:02:00,56.6,54.6,29.82,SSW,207,9.4,13.8,93,0.04,RA,,0.16,0.0,WeatherDisplay:10.37,2013-11-06 09:02:00,
2013-11-06 03:07:00,56.6,54.9,29.82,SW,234,6.7,12.7,94,0.05,RA,,0.17,0.0,WeatherDisplay:10.37,2013-11-06 09:07:00,
2013-11-06 03:12:00,56.6,54.9,29.82,South,180,5.1,12.7,94,0.06,RA,,0.19,0.0,WeatherDisplay:10.37,2013-11-06 09:12:00,
2013-11-06 03:17:00,56.6,54.9,29.82,SW,224,9.2,18.4,94,0.06,RA,,0.20,0.0,WeatherDisplay:10.37,2013-11-06 09:17:00,
2013-11-06 03:22:00,56.6,54.6,29.82,SSW,211,8.4,14.0,93,0.07,RA,,0.22,0.0,WeatherDisplay:10.37,2013-11-06 09:22:00,
2013-11-06 03:27:00,56.6,54.9,29.81,SSW,203,7.6,15.0,94,0.07,RA,,0.22,0.0,WeatherDisplay:10.37,2013-11-06 09:27:00,
2013-11-06 03:32:00,56.6,54.9,29.81,SSW,203,6.8,15.0,94,0.10,RA,,0.25,0.0,WeatherDisplay:10.37,2013-11-06 09:32:00,
2013-11-06 03:37:00,56.6,54.9,29.80,SSW,210,6.7,14.0,94,0.11,RA,,0.26,0.0,WeatherDisplay:10.37,2013-11-06 09:37:00,
2013-11-06 03:42:00,56.7,55.0,29.80,SSW,194,9.3,13.8,94,0.11,RA,,0.26,0.0,WeatherDisplay:10.37,2013-11-06 09:42:00,
2013-11-06 03:47:00,56.7,55.0,29.80,SSW,209,5.3,12.7,94,0.11,CLR,,0.26,0.0,WeatherDisplay:10.37,2013-11-06 09:47:00,
2013-11-06 03:52:00,56.7,55.0,29.80,SSW,208,5.4,10.4,94,0.12,RA,,0.27,0.0,WeatherDisplay:10.37,2013-11-06 09:52:00,
2013-11-06 03:57:00,56.7,55.0,29.81,SSW,201,7.3,11.5,94,0.11,RA,,0.27,0.0,WeatherDisplay:10.37,2013-11-06 09:57:00,
2013-11-06 04:02:00,56.8,55.1,29.81,SSW,211,7.4,13.8,94,0.11,,,0.27,0.0,WeatherDisplay:10.37,2013-11-06 10:02:00,
2013-11-06 04:07:00,56.8,55.1,29.80,SSW,196,6.3,13.0,94,0.10,CLR,,0.27,0.0,WeatherDisplay:10.37,2013-11-06 10:07:00,
2013-11-06 04:12:00,56.8,55.1,29.80,SSW,195,4.5,6.9,94,0.09,CLR,,0.27,0.0,WeatherDisplay:10.37,2013-11-06 10:12:00,
2013-11-06 04:17:00,56.8,55.1,29.80,SSW,203,8.7,14.0,94,0.07,CLR,,0.27,0.0,WeatherDisplay:10.37,2013-11-06 10:17:00,
2013-11-06 04:22:00,56.8,55.1,29.80,South,186,6.2,11.0,94,0.06,CLR,,0.27,0.0,WeatherDisplay:10.37,2013-11-06 10:22:00,
2013-11-06 04:27:00,56.8,55.1,29.79,SSE,153,9.1,11.5,94,0.05,CLR,,0.27,0.0,WeatherDisplay:10.37,2013-11-06 10:27:00,
2013-11-06 04:32:00,56.8,55.1,29.80,SSW,196,4.5,9.2,94,0.02,CLR,,0.27,0.0,WeatherDisplay:10.37,2013-11-06 10:32:00,
2013-11-06 04:37:00,56.9,55.2,29.80,SSW,198,5.5,10.4,94,0.01,CLR,,0.27,0.0,WeatherDisplay:10.37,2013-11-06 10:37:00,
2013-11-06 04:42:00,56.9,55.2,29.80,SSW,207,8.1,18.4,94,0.01,CLR,,0.27,0.0,WeatherDisplay:10.37,2013-11-06 10:42:00,
2013-11-06 04:47:00,57.1,55.4,29.80,SSW,209,5.7,11.5,94,0.01,CLR,,0.27,0.0,WeatherDisplay:10.37,2013-11-06 10:47:00,
2013-11-06 04:52:00,57.2,55.5,29.80,SSW,211,6.8,11.5,94,0.00,CLR,,0.27,0.0,WeatherDisplay:10.37,2013-11-06 10:52:00,
2013-11-06 04:57:00,57.2,55.5,29.80,SW,224,6.7,10.4,94,0.00,CLR,,0.27,0.0,WeatherDisplay:10.37,2013-11-06 10:57:00,
2013-11-06 05:02:00,57.2,55.5,29.80,SSW,197,5.6,11.5,94,0.00,CLR,,0.27,0.0,WeatherDisplay:10.37,2013-11-06 11:02:00,
2013-11-06 05:07:00,57.2,55.5,29.80,SSW,195,9.7,17.3,94,0.00,CLR,,0.27,0.0,WeatherDisplay:10.37,2013-11-06 11:07:00,
2013-11-06 05:12:00,57.2,55.5,29.81,SSW,207,8.5,13.0,94,0.00,CLR,,0.27,0.0,WeatherDisplay:10.37,2013-11-06 11:12:00,
2013-11-06 05:17:00,57.3,55.6,29.81,SSW,210,7.2,12.7,94,0.00,CLR,,0.27,0.0,WeatherDisplay:10.37,2013-11-06 11:17:00,
2013-11-06 05:22:00,57.3,55.6,29.81,SW,219,9.6,12.7,94,0.01,RA,,0.29,0.0,WeatherDisplay:10.37,2013-11-06 11:22:00,
2013-11-06 05:27:00,57.3,55.6,29.80,SSW,198,6.9,11.5,94,0.01,RA,,0.29,0.0,WeatherDisplay:10.37,2013-11-06 11:27:00,
2013-11-06 05:32:00,57.3,55.6,29.80,South,191,7.5,11.5,94,0.01,,,0.29,0.0,WeatherDisplay:10.37,2013-11-06 11:32:00,
2013-11-06 05:37:00,57.3,55.6,29.81,SSW,197,10.3,16.1,94,0.02,RA,,0.30,0.0,WeatherDisplay:10.37,2013-11-06 11:37:00,
2013-11-06 05:42:00,57.3,55.6,29.80,South,175,6.4,11.5,94,0.02,RA,,0.30,0.0,WeatherDisplay:10.37,2013-11-06 11:42:00,
2013-11-06 05:47:00,57.3,55.6,29.80,SSW,210,5.1,11.5,94,0.04,RA,,0.31,0.0,WeatherDisplay:10.37,2013-11-06 11:47:00,
2013-11-06 05:52:00,56.8,54.8,29.83,WNW,286,11.6,21.9,93,0.04,RA,,0.31,0.0,WeatherDisplay:10.37,2013-11-06 11:52:00,
2013-11-06 05:57:00,52.4,49.3,29.84,WNW,299,21.4,28.8,89,0.04,CLR,,0.31,0.0,WeatherDisplay:10.37,2013-11-06 11:57:00,
2013-11-06 06:02:00,49.9,47.4,29.84,WNW,294,15.9,19.6,91,0.04,CLR,,0.31,0.0,WeatherDisplay:10.37,2013-11-06 12:02:00,
2013-11-06 06:07:00,49.1,46.6,29.84,NW,318,11.7,17.3,91,0.04,CLR,,0.31,0.0,WeatherDisplay:10.37,2013-11-06 12:07:00,
2013-11-06 06:12:00,48.5,46.3,29.84,WNW,288,9.9,11.5,92,0.04,OVC,,0.31,0.0,WeatherDisplay:10.37,2013-11-06 12:12:00,
2013-11-06 06:17:00,48.3,46.1,29.85,WNW,287,10.9,14.0,92,0.04,OVC,,0.31,0.0,WeatherDisplay:10.37,2013-11-06 12:17:00,
2013-11-06 06:22:00,48.1,45.9,29.85,WNW,290,9.9,15.0,92,0.02,OVC,,0.31,0.0,WeatherDisplay:10.37,2013-11-06 12:22:00,
2013-11-06 06:27:00,47.9,45.7,29.86,WNW,284,14.6,20.0,92,0.02,OVC,,0.31,0.0,WeatherDisplay:10.37,2013-11-06 12:27:00,
2013-11-06 06:32:00,47.7,45.5,29.85,West,280,12.2,16.1,92,0.02,OVC,,0.31,0.0,WeatherDisplay:10.37,2013-11-06 12:32:00,
2013-11-06 06:37:00,47.4,45.2,29.85,West,273,11.7,18.4,92,0.01,OVC,,0.31,0.0,WeatherDisplay:10.37,2013-11-06 12:37:00,
2013-11-06 06:42:00,47.2,45.0,29.85,West,280,8.3,11.5,92,0.01,OVC,,0.31,0.0,WeatherDisplay:10.37,2013-11-06 12:42:00,
2013-11-06 06:47:00,46.9,44.7,29.87,NW,307,11.9,15.0,92,0.00,OVC,,0.31,0.0,WeatherDisplay:10.37,2013-11-06 12:47:00,
2013-11-06 06:52:00,46.5,44.3,29.87,NW,307,14.5,19.6,92,0.00,OVC,,0.31,0.0,WeatherDisplay:10.37,2013-11-06 12:52:00,
2013-11-06 06:57:00,45.9,43.7,29.88,West,269,14.8,19.6,92,0.00,OVC,,0.31,0.0,WeatherDisplay:10.37,2013-11-06 12:57:00,
2013-11-06 07:02:00,45.3,43.1,29.89,West,281,17.6,23.0,92,0.00,RA,,0.00,0.0,WeatherDisplay:10.37,2013-11-06 13:02:00,
2013-11-06 07:07:00,44.3,41.8,29.89,WNW,293,16.5,23.0,91,0.00,RA,,0.00,0.0,WeatherDisplay:10.37,2013-11-06 13:07:00,
2013-11-06 07:13:00,43.5,41.0,29.89,WNW,292,16.0,23.0,91,0.00,OVC,,0.00,8.7,WeatherDisplay:10.37,2013-11-06 13:13:00,
2013-11-06 07:18:00,43.0,40.8,29.89,WNW,296,10.3,16.0,92,0.00,OVC,,0.00,11.2,WeatherDisplay:10.37,2013-11-06 13:18:00,
2013-11-06 07:23:00,42.7,40.5,29.90,WNW,302,14.7,19.6,92,0.00,OVC,,0.00,6.2,WeatherDisplay:10.37,2013-11-06 13:23:00,
2013-11-06 07:28:00,42.4,40.2,29.91,West,272,11.0,15.0,92,0.00,OVC,,0.00,8.7,WeatherDisplay:10.37,2013-11-06 13:28:00,
2013-11-06 07:33:00,42.2,40.0,29.92,WNW,298,12.4,18.0,92,0.00,OVC,,0.00,11.2,WeatherDisplay:10.37,2013-11-06 13:33:00,
2013-11-06 07:38:00,42.1,39.9,29.92,WNW,293,15.2,19.6,92,0.00,OVC,,0.00,14.9,WeatherDisplay:10.37,2013-11-06 13:38:00,
2013-11-06 07:43:00,41.8,39.6,29.91,WNW,282,10.1,13.0,92,0.00,OVC,,0.00,19.8,WeatherDisplay:10.37,2013-11-06 13:43:00,
2013-11-06 07:48:00,41.6,39.4,29.93,NW,305,10.3,13.0,92,0.00,OVC,,0.00,17.4,WeatherDisplay:10.37,2013-11-06 13:48:00,
2013-11-06 07:53:00,41.4,39.3,29.93,WNW,294,16.8,19.6,92,0.00,OVC,,0.00,8.7,WeatherDisplay:10.37,2013-11-06 13:53:00,
2013-11-06 07:58:00,41.2,39.1,29.93,WNW,292,15.1,20.7,92,0.00,OVC,,0.00,11.2,WeatherDisplay:10.37,2013-11-06 13:58:00,
2013-11-06 08:03:00,41.0,38.9,29.93,West,279,15.8,20.7,92,0.00,OVC,,0.00,22.3,WeatherDisplay:10.37,2013-11-06 14:03:00,
2013-11-06 08:08:00,40.9,38.8,29.93,West,278,11.9,16.1,92,0.00,OVC,,0.00,22.3,WeatherDisplay:10.37,2013-11-06 14:08:00,
2013-11-06 08:13:00,40.7,38.6,29.92,WNW,288,12.3,18.4,92,0.00,OVC,,0.00,14.9,WeatherDisplay:10.37,2013-11-06 14:13:00,
2013-11-06 08:18:00,40.6,38.5,29.93,WNW,293,12.9,17.3,92,0.00,OVC,,0.00,13.6,WeatherDisplay:10.37,2013-11-06 14:18:00,
2013-11-06 08:23:00,40.5,38.4,29.94,NW,318,12.6,20.7,92,0.00,OVC,,0.00,14.9,WeatherDisplay:10.37,2013-11-06 14:23:00,
2013-11-06 08:28:00,40.5,38.4,29.95,West,279,11.9,15.0,92,0.00,OVC,,0.00,17.4,WeatherDisplay:10.37,2013-11-06 14:28:00,
2013-11-06 08:33:00,40.5,38.4,29.95,West,275,10.5,18.4,92,0.00,OVC,,0.00,17.4,WeatherDisplay:10.37,2013-11-06 14:33:00,
2013-11-06 08:38:00,40.4,38.3,29.97,NW,315,14.9,19.6,92,0.00,OVC,,0.00,14.9,WeatherDisplay:10.37,2013-11-06 14:38:00,
2013-11-06 08:43:00,40.3,38.2,29.97,NNE,22,15.5,19.6,92,0.00,OVC,,0.00,26.0,WeatherDisplay:10.37,2013-11-06 14:43:00,
2013-11-06 08:48:00,40.2,38.1,29.97,NW,307,17.2,23.0,92,0.00,OVC,,0.00,17.4,WeatherDisplay:10.37,2013-11-06 14:48:00,
2013-11-06 08:53:00,40.2,38.1,29.96,WNW,295,14.7,19.6,92,0.00,OVC,,0.00,26.0,WeatherDisplay:10.37,2013-11-06 14:53:00,
2013-11-06 08:58:00,40.1,38.0,29.98,WNW,299,12.6,17.3,92,0.00,OVC,,0.00,23.6,WeatherDisplay:10.37,2013-11-06 14:58:00,
2013-11-06 09:03:00,40.1,38.0,29.97,NW,306,14.3,23.0,92,0.00,OVC,,0.00,32.2,WeatherDisplay:10.37,2013-11-06 15:03:00,
2013-11-06 09:08:00,40.0,37.9,29.97,NW,322,13.8,19.0,92,0.00,OVC,,0.00,31.0,WeatherDisplay:10.37,2013-11-06 15:08:00,
2013-11-06 09:13:00,40.0,37.9,29.97,West,270,15.5,20.7,92,0.00,OVC,,0.00,34.7,WeatherDisplay:10.37,2013-11-06 15:13:00,
2013-11-06 09:18:00,40.0,37.9,29.98,NW,316,14.9,22.0,92,0.00,OVC,,0.00,85.6,WeatherDisplay:10.37,2013-11-06 15:18:00,
2013-11-06 09:23:00,40.1,38.0,29.99,WNW,288,14.9,21.0,92,0.00,OVC,,0.00,31.0,WeatherDisplay:10.37,2013-11-06 15:23:00,
2013-11-06 09:28:00,40.1,38.0,30.00,WNW,283,14.0,22.0,92,0.00,OVC,,0.00,32.2,WeatherDisplay:10.37,2013-11-06 15:28:00,
2013-11-06 09:33:00,40.1,38.0,30.00,WNW,287,12.5,15.0,92,0.00,OVC,,0.00,71.9,WeatherDisplay:10.37,2013-11-06 15:33:00,
2013-11-06 09:38:00,40.0,37.9,30.00,WNW,293,15.9,25.3,92,0.00,OVC,,0.00,43.4,WeatherDisplay:10.37,2013-11-06 15:38:00,
2013-11-06 09:43:00,40.0,37.9,30.00,WNW,284,12.1,15.0,92,0.00,OVC,,0.00,19.8,WeatherDisplay:10.37,2013-11-06 15:43:00,
2013-11-06 09:48:00,40.0,37.6,30.00,NW,306,8.3,13.0,91,0.00,OVC,,0.00,78.1,WeatherDisplay:10.37,2013-11-06 15:48:00,
2013-11-06 09:53:00,40.0,37.6,30.00,WNW,294,13.0,16.1,91,0.00,OVC,,0.00,74.4,WeatherDisplay:10.37,2013-11-06 15:53:00,
2013-11-06 09:58:00,40.0,37.6,30.00,West,275,15.4,26.5,91,0.00,OVC,,0.00,98.0,WeatherDisplay:10.37,2013-11-06 15:58:00,
2013-11-06 10:03:00,39.9,37.5,30.00,WNW,288,11.3,19.6,91,0.00,OVC,,0.00,121.5,WeatherDisplay:10.37,2013-11-06 16:03:00,
2013-11-06 10:08:00,40.0,37.6,30.00,NW,325,14.4,19.6,91,0.01,RA,,0.01,161.2,WeatherDisplay:10.37,2013-11-06 16:08:00,
2013-11-06 10:13:00,40.0,37.3,30.00,WNW,295,17.4,22.0,90,0.01,RA,,0.01,150.0,WeatherDisplay:10.37,2013-11-06 16:13:00,
2013-11-06 10:18:00,40.1,37.4,30.01,WNW,292,17.5,24.2,90,0.01,OVC,,0.01,124.0,WeatherDisplay:10.37,2013-11-06 16:18:00,
2013-11-06 10:23:00,40.3,37.6,30.01,NW,311,12.4,18.0,90,0.01,OVC,,0.01,132.7,WeatherDisplay:10.37,2013-11-06 16:23:00,
2013-11-06 10:28:00,40.4,37.4,30.01,NW,326,13.0,20.7,89,0.01,BKN,,0.01,204.6,WeatherDisplay:10.37,2013-11-06 16:28:00,
2013-11-06 10:33:00,40.5,37.5,30.01,NNW,336,14.7,22.0,89,0.01,BKN,,0.01,135.2,WeatherDisplay:10.37,2013-11-06 16:33:00,
2013-11-06 10:38:00,40.5,37.2,30.01,WNW,300,16.3,21.0,88,0.01,BKN,,0.01,143.8,WeatherDisplay:10.37,2013-11-06 16:38:00,
2013-11-06 10:43:00,40.3,37.0,30.02,WNW,294,14.5,20.7,88,0.01,OVC,,0.01,120.3,WeatherDisplay:10.37,2013-11-06 16:43:00,
2013-11-06 10:48:00,40.3,37.0,30.02,WNW,294,13.3,17.0,88,0.01,OVC,,0.01,124.0,WeatherDisplay:10.37,2013-11-06 16:48:00,
2013-11-06 10:53:00,40.4,37.1,30.02,WNW,291,16.2,21.9,88,0.01,OVC,,0.01,135.2,WeatherDisplay:10.37,2013-11-06 16:53:00,
2013-11-06 10:58:00,40.3,36.7,30.03,WNW,300,16.8,24.2,87,0.01,OVC,,0.01,137.6,WeatherDisplay:10.37,2013-11-06 16:58:00,
2013-11-06 11:03:00,40.2,36.6,30.03,West,277,19.3,29.0,87,0.01,OVC,,0.01,148.8,WeatherDisplay:10.37,2013-11-06 17:03:00,
2013-11-06 11:08:00,40.4,36.8,30.04,WNW,286,13.6,17.3,87,0.00,OVC,,0.01,146.3,WeatherDisplay:10.37,2013-11-06 17:08:00,
2013-11-06 11:13:00,40.3,36.7,30.04,NNW,342,12.9,19.6,87,0.00,OVC,,0.01,112.8,WeatherDisplay:10.37,2013-11-06 17:13:00,
2013-11-06 11:18:00,40.5,36.9,30.04,WNW,292,13.6,19.6,87,0.00,OVC,,0.01,129.0,WeatherDisplay:10.37,2013-11-06 17:18:00,
2013-11-06 11:23:00,40.5,36.6,30.04,WNW,292,12.7,19.6,86,0.00,OVC,,0.01,172.4,WeatherDisplay:10.37,2013-11-06 17:23:00,
2013-11-06 11:28:00,40.5,36.6,30.04,NW,304,16.0,19.6,86,0.00,OVC,,0.01,167.4,WeatherDisplay:10.37,2013-11-06 17:28:00,
2013-11-06 11:33:00,40.5,36.6,30.04,NNW,346,16.4,18.4,86,0.00,BKN,,0.01,166.2,WeatherDisplay:10.37,2013-11-06 17:33:00,
2013-11-06 11:38:00,40.6,36.7,30.03,NW,312,13.7,18.4,86,0.00,OVC,,0.01,155.0,WeatherDisplay:10.37,2013-11-06 17:38:00,
2013-11-06 11:43:00,40.7,36.5,30.04,WNW,286,13.7,19.6,85,0.00,OVC,,0.01,157.5,WeatherDisplay:10.37,2013-11-06 17:43:00,
2013-11-06 11:48:00,40.8,36.6,30.04,NW,306,13.6,17.3,85,0.00,OVC,,0.01,183.5,WeatherDisplay:10.37,2013-11-06 17:48:00,
2013-11-06 11:53:00,40.9,36.7,30.03,NW,309,15.7,19.6,85,0.00,OVC,,0.01,176.1,WeatherDisplay:10.37,2013-11-06 17:53:00,
2013-11-06 11:58:00,41.0,36.8,30.04,WNW,285,12.3,18.4,85,0.00,BKN,,0.01,200.9,WeatherDisplay:10.37,2013-11-06 17:58:00,
2013-11-06 12:03:00,41.1,36.9,30.04,WNW,299,11.9,16.1,85,0.00,BKN,,0.01,207.1,WeatherDisplay:10.37,2013-11-06 18:03:00,
2013-11-06 12:08:00,41.3,36.8,30.04,NW,313,13.7,17.3,84,0.00,BKN,,0.01,193.4,WeatherDisplay:10.37,2013-11-06 18:08:00,
2013-11-06 12:13:00,41.5,37.0,30.04,WNW,286,14.2,21.0,84,0.00,BKN,,0.01,207.1,WeatherDisplay:10.37,2013-11-06 18:13:00,
2013-11-06 12:18:00,41.7,37.2,30.04,NW,308,9.5,15.0,84,0.00,BKN,,0.01,212.0,WeatherDisplay:10.37,2013-11-06 18:18:00,
2013-11-06 12:23:00,41.9,37.1,30.04,NW,320,15.8,20.7,83,0.00,BKN,,0.01,229.4,WeatherDisplay:10.37,2013-11-06 18:23:00,
2013-11-06 12:28:00,42.0,37.2,30.04,WNW,295,12.8,23.0,83,0.00,BKN,,0.01,195.9,WeatherDisplay:10.37,2013-11-06 18:28:00,
2013-11-06 12:33:00,42.1,37.0,30.04,NW,304,11.0,21.9,82,0.00,BKN,,0.01,176.1,WeatherDisplay:10.37,2013-11-06 18:33:00,
2013-11-06 12:38:00,42.4,37.3,30.04,WNW,295,10.7,16.1,82,0.00,BKN,,0.01,106.6,WeatherDisplay:10.37,2013-11-06 18:38:00,
2013-11-06 12:43:00,42.3,37.2,30.05,WNW,298,14.6,19.0,82,0.00,OVC,,0.01,135.2,WeatherDisplay:10.37,2013-11-06 18:43:00,
2013-11-06 12:48:00,42.3,37.5,30.05,NW,307,10.4,15.0,83,0.00,OVC,,0.01,181.0,WeatherDisplay:10.37,2013-11-06 18:48:00,
2013-11-06 12:53:00,42.4,37.3,30.05,NW,317,15.1,20.0,82,0.00,BKN,,0.01,189.7,WeatherDisplay:10.37,2013-11-06 18:53:00,
2013-11-06 12:58:00,42.5,37.1,30.05,NW,310,11.8,16.1,81,0.00,BKN,,0.01,146.3,WeatherDisplay:10.37,2013-11-06 18:58:00,
2013-11-06 13:03:00,42.7,37.3,30.06,NNW,334,15.7,19.6,81,0.00,OVC,,0.01,121.5,WeatherDisplay:10.37,2013-11-06 19:03:00,
2013-11-06 13:08:00,42.7,37.3,30.06,WNW,299,13.2,17.3,81,0.00,OVC,,0.01,158.7,WeatherDisplay:10.37,2013-11-06 19:08:00,
2013-11-06 13:13:00,42.7,37.3,30.06,NW,319,9.3,11.5,81,0.00,OVC,,0.01,143.8,WeatherDisplay:10.37,2013-11-06 19:13:00,
2013-11-06 13:18:00,42.7,37.3,30.07,NW,313,10.5,13.0,81,0.00,OVC,,0.01,167.4,WeatherDisplay:10.37,2013-11-06 19:18:00,
2013-11-06 13:23:00,42.8,37.4,30.07,NW,315,13.7,19.6,81,0.00,BKN,,0.01,215.8,WeatherDisplay:10.37,2013-11-06 19:23:00,
2013-11-06 13:28:00,42.9,37.2,30.07,North,5,12.3,14.0,80,0.00,BKN,,0.01,129.0,WeatherDisplay:10.37,2013-11-06 19:28:00,
2013-11-06 13:33:00,43.0,37.3,30.07,NW,312,12.6,18.0,80,0.00,BKN,,0.01,187.2,WeatherDisplay:10.37,2013-11-06 19:33:00,
2013-11-06 13:38:00,43.1,37.3,30.08,NW,313,13.2,18.0,80,0.00,BKN,,0.01,272.8,WeatherDisplay:10.37,2013-11-06 19:38:00,
2013-11-06 13:43:00,43.2,37.4,30.08,WNW,302,12.6,18.0,80,0.00,SCT,,0.01,148.8,WeatherDisplay:10.37,2013-11-06 19:43:00,
2013-11-06 13:48:00,43.3,37.2,30.08,NW,309,11.3,17.3,79,0.00,SCT,,0.01,143.8,WeatherDisplay:10.37,2013-11-06 19:48:00,
2013-11-06 13:53:00,43.2,37.1,30.08,NW,309,12.6,16.1,79,0.00,BKN,,0.01,163.7,WeatherDisplay:10.37,2013-11-06 19:53:00,
2013-11-06 13:58:00,43.3,37.2,30.08,North,350,13.6,18.4,79,0.00,BKN,,0.01,187.2,WeatherDisplay:10.37,2013-11-06 19:58:00,
2013-11-06 14:03:00,43.4,37.3,30.08,NW,321,12.4,15.0,79,0.00,SCT,,0.01,241.8,WeatherDisplay:10.37,2013-11-06 20:03:00,
2013-11-06 14:08:00,43.6,37.2,30.08,NW,312,9.4,13.0,78,0.00,SCT,,0.01,176.1,WeatherDisplay:10.37,2013-11-06 20:08:00,
2013-11-06 14:13:00,43.7,37.0,30.08,NW,311,12.7,17.0,77,0.00,SCT,,0.01,158.7,WeatherDisplay:10.37,2013-11-06 20:13:00,
2013-11-06 14:18:00,43.8,37.1,30.08,NW,311,10.1,15.0,77,0.00,SCT,,0.01,181.0,WeatherDisplay:10.37,2013-11-06 20:18:00,
2013-11-06 14:23:00,44.0,36.9,30.09,NW,306,8.6,13.8,76,0.00,SCT,,0.01,155.0,WeatherDisplay:10.37,2013-11-06 20:23:00,
2013-11-06 14:28:00,44.1,37.0,30.09,WNW,302,9.1,13.0,76,0.00,SCT,,0.01,83.1,WeatherDisplay:10.37,2013-11-06 20:28:00,
2013-11-06 14:33:00,44.2,36.8,30.10,North,349,9.8,18.4,75,0.00,BKN,,0.01,124.0,WeatherDisplay:10.37,2013-11-06 20:33:00,
2013-11-06 14:38:00,44.3,36.9,30.09,NNW,332,6.6,12.7,75,0.00,BKN,,0.01,120.3,WeatherDisplay:10.37,2013-11-06 20:38:00,
2013-11-06 14:43:00,44.5,37.4,30.10,WNW,288,8.2,12.0,76,0.00,BKN,,0.01,135.2,WeatherDisplay:10.37,2013-11-06 20:43:00,
2013-11-06 14:48:00,44.5,37.4,30.10,WNW,284,8.2,12.7,76,0.00,BKN,,0.01,140.1,WeatherDisplay:10.37,2013-11-06 20:48:00,
2013-11-06 14:53:00,44.6,37.2,30.10,West,277,9.2,12.7,75,0.00,SCT,,0.01,181.0,WeatherDisplay:10.37,2013-11-06 20:53:00,
2013-11-06 14:58:00,44.8,37.4,30.10,WNW,299,10.3,13.0,75,0.00,FEW,,0.01,111.6,WeatherDisplay:10.37,2013-11-06 20:58:00,
2013-11-06 15:03:00,44.9,37.1,30.10,WNW,298,11.2,17.3,74,0.00,FEW,,0.01,141.4,WeatherDisplay:10.37,2013-11-06 21:03:00,
2013-11-06 15:08:00,45.1,37.3,30.10,WNW,285,9.1,12.0,74,0.00,FEW,,0.01,193.4,WeatherDisplay:10.37,2013-11-06 21:08:00,
2013-11-06 15:13:00,45.4,37.2,30.10,NW,325,13.2,21.0,73,0.00,CLR,,0.01,292.6,WeatherDisplay:10.37,2013-11-06 21:13:00,
2013-11-06 15:18:00,45.6,37.1,30.11,WNW,292,13.3,17.0,72,0.00,CLR,,0.01,132.7,WeatherDisplay:10.37,2013-11-06 21:18:00,
2013-11-06 15:23:00,45.8,37.3,30.11,WNW,297,13.8,18.4,72,0.00,CLR,,0.01,146.3,WeatherDisplay:10.37,2013-11-06 21:23:00,
2013-11-06 15:28:00,45.9,37.0,30.11,NW,319,10.5,15.0,71,0.00,CLR,,0.01,296.4,WeatherDisplay:10.37,2013-11-06 21:28:00,
2013-11-06 15:33:00,45.8,36.6,30.11,WNW,302,12.7,19.6,70,0.00,CLR,,0.01,58.3,WeatherDisplay:10.37,2013-11-06 21:33:00,
2013-11-06 15:38:00,45.6,36.0,30.11,NW,306,12.4,17.0,69,0.00,SCT,,0.01,155.0,WeatherDisplay:10.37,2013-11-06 21:38:00,
2013-11-06 15:43:00,45.5,35.9,30.12,NNW,337,9.7,15.0,69,0.00,FEW,,0.01,152.5,WeatherDisplay:10.37,2013-11-06 21:43:00,
2013-11-06 15:49:00,45.7,36.1,30.12,NW,309,9.6,14.0,69,0.00,CLR,,0.01,74.4,WeatherDisplay:10.37,2013-11-06 21:49:00,
2013-11-06 15:54:00,45.6,36.0,30.12,WNW,288,13.0,18.4,69,0.00,BKN,,0.01,48.4,WeatherDisplay:10.37,2013-11-06 21:54:00,
2013-11-06 15:59:00,45.5,35.9,30.13,NW,309,9.1,12.7,69,0.00,CLR,,0.01,100.4,WeatherDisplay:10.37,2013-11-06 21:59:00,
2013-11-06 16:04:00,45.4,35.8,30.13,WNW,298,8.0,12.7,69,0.00,BKN,,0.01,45.9,WeatherDisplay:10.37,2013-11-06 22:04:00,
2013-11-06 16:09:00,45.2,36.0,30.13,NW,326,12.3,15.0,70,0.00,BKN,,0.01,40.9,WeatherDisplay:10.37,2013-11-06 22:09:00,
2013-11-06 16:14:00,45.0,36.2,30.13,WNW,301,11.2,15.0,71,0.00,BKN,,0.01,31.0,WeatherDisplay:10.37,2013-11-06 22:14:00,
2013-11-06 16:19:00,44.8,36.0,30.13,WNW,284,11.5,17.0,71,0.00,OVC,,0.01,23.6,WeatherDisplay:10.37,2013-11-06 22:19:00,
2013-11-06 16:24:00,44.5,35.7,30.14,WNW,299,12.1,17.3,71,0.00,BKN,,0.01,23.6,WeatherDisplay:10.37,2013-11-06 22:24:00,
2013-11-06 16:29:00,44.4,35.2,30.15,WNW,295,6.7,10.4,70,0.00,BKN,,0.01,19.8,WeatherDisplay:10.37,2013-11-06 22:29:00,
2013-11-06 16:34:00,44.3,35.1,30.15,NW,313,7.6,10.4,70,0.00,BKN,,0.01,19.8,WeatherDisplay:10.37,2013-11-06 22:34:00,
2013-11-06 16:39:00,44.2,35.0,30.15,WNW,290,6.9,10.4,70,0.00,BKN,,0.01,14.9,WeatherDisplay:10.37,2013-11-06 22:39:00,
2013-11-06 16:44:00,44.0,34.8,30.15,WNW,302,7.1,10.4,70,0.00,SCT,,0.01,13.6,WeatherDisplay:10.37,2013-11-06 22:44:00,
2013-11-06 16:49:00,43.7,34.6,30.15,NNW,334,10.8,13.8,70,0.00,SCT,,0.01,8.7,WeatherDisplay:10.37,2013-11-06 22:49:00,
2013-11-06 16:54:00,43.6,34.1,30.15,NW,315,10.3,13.0,69,0.00,CLR,,0.01,6.2,WeatherDisplay:10.37,2013-11-06 22:54:00,
2013-11-06 16:59:00,43.6,34.1,30.15,NW,322,8.4,12.0,69,0.00,OVC,,0.01,0.0,WeatherDisplay:10.37,2013-11-06 22:59:00,
2013-11-06 17:04:00,43.4,33.2,30.15,NW,309,6.5,10.4,67,0.00,CLR,,0.01,0.0,WeatherDisplay:10.37,2013-11-06 23:04:00,
2013-11-06 17:09:00,43.3,33.1,30.16,NW,313,6.5,9.0,67,0.00,CLR,,0.01,0.0,WeatherDisplay:10.37,2013-11-06 23:09:00,
2013-11-06 17:14:00,43.2,33.3,30.16,WNW,291,6.0,9.0,68,0.00,CLR,,0.01,0.0,WeatherDisplay:10.37,2013-11-06 23:14:00,
2013-11-06 17:19:00,43.0,33.2,30.16,WNW,287,6.5,11.5,68,0.00,CLR,,0.01,0.0,WeatherDisplay:10.37,2013-11-06 23:19:00,
2013-11-06 17:24:00,42.7,32.9,30.17,NW,313,6.9,11.0,68,0.00,CLR,,0.01,0.0,WeatherDisplay:10.37,2013-11-06 23:24:00,
2013-11-06 17:29:00,42.5,32.7,30.17,WNW,291,5.1,10.4,68,0.00,CLR,,0.01,0.0,WeatherDisplay:10.37,2013-11-06 23:29:00,
2013-11-06 17:34:00,42.3,32.5,30.17,WNW,296,6.3,11.5,68,0.00,CLR,,0.01,0.0,WeatherDisplay:10.37,2013-11-06 23:34:00,
2013-11-06 17:39:00,42.2,32.4,30.18,WNW,294,5.2,7.0,68,0.00,CLR,,0.01,0.0,WeatherDisplay:10.37,2013-11-06 23:39:00,
2013-11-06 17:44:00,42.0,32.6,30.18,WNW,294,4.4,7.0,69,0.00,CLR,,0.01,0.0,WeatherDisplay:10.37,2013-11-06 23:44:00,
2013-11-06 17:49:00,41.8,32.4,30.18,WNW,295,6.1,7.0,69,0.00,CLR,,0.01,0.0,WeatherDisplay:10.37,2013-11-06 23:49:00,
2013-11-06 17:54:00,41.6,32.2,30.19,WNW,298,6.6,8.1,69,0.00,CLR,,0.01,0.0,WeatherDisplay:10.37,2013-11-06 23:54:00,
2013-11-06 17:59:00,41.3,32.2,30.19,WNW,298,4.7,6.0,70,0.00,CLR,,0.01,0.0,WeatherDisplay:10.37,2013-11-06 23:59:00,
2013-11-06 18:04:00,41.1,32.1,30.19,WNW,299,5.7,9.2,70,0.00,CLR,,0.01,0.0,WeatherDisplay:10.37,2013-11-07 00:04:00,
2013-11-06 18:09:00,41.0,32.0,30.20,WNW,300,5.3,6.9,70,0.00,CLR,,0.01,0.0,WeatherDisplay:10.37,2013-11-07 00:09:00,
2013-11-06 18:14:00,40.9,31.9,30.20,WNW,296,6.1,10.4,70,0.00,CLR,,0.01,0.0,WeatherDisplay:10.37,2013-11-07 00:14:00,
2013-11-06 18:19:00,40.9,31.9,30.20,WNW,302,4.5,6.0,70,0.00,CLR,,0.01,0.0,WeatherDisplay:10.37,2013-11-07 00:19:00,
2013-11-06 18:24:00,40.7,31.7,30.20,WNW,301,5.6,10.4,70,0.00,CLR,,0.01,0.0,WeatherDisplay:10.37,2013-11-07 00:24:00,
2013-11-06 18:29:00,40.5,31.5,30.20,WNW,299,5.5,7.0,70,0.00,CLR,,0.01,0.0,WeatherDisplay:10.37,2013-11-07 00:29:00,
2013-11-06 18:34:00,40.4,31.7,30.20,WNW,299,3.2,4.6,71,0.00,CLR,,0.01,0.0,WeatherDisplay:10.37,2013-11-07 00:34:00,
2013-11-06 18:39:00,40.2,31.5,30.21,WNW,300,5.1,9.0,71,0.00,CLR,,0.01,0.0,WeatherDisplay:10.37,2013-11-07 00:39:00,
2013-11-06 18:44:00,39.9,31.6,30.20,WNW,296,6.3,8.1,72,0.00,CLR,,0.01,0.0,WeatherDisplay:10.37,2013-11-07 00:44:00,
2013-11-06 18:49:00,39.7,31.4,30.21,WNW,300,5.6,10.0,72,0.00,CLR,,0.01,0.0,WeatherDisplay:10.37,2013-11-07 00:49:00,
2013-11-06 18:54:00,39.6,31.3,30.21,WNW,298,5.2,6.0,72,0.00,CLR,,0.01,0.0,WeatherDisplay:10.37,2013-11-07 00:54:00,
2013-11-06 18:59:00,39.5,31.2,30.21,WNW,298,4.4,6.0,72,0.00,CLR,,0.01,0.0,WeatherDisplay:10.37,2013-11-07 00:59:00,
2013-11-06 19:04:00,39.4,31.1,30.21,WNW,296,5.9,9.0,72,0.00,CLR,,0.01,0.0,WeatherDisplay:10.37,2013-11-07 01:04:00,
2013-11-06 19:09:00,39.4,30.8,30.21,WNW,297,4.5,6.0,71,0.00,CLR,,0.01,0.0,WeatherDisplay:10.37,2013-11-07 01:09:00,
2013-11-06 19:14:00,39.3,30.7,30.21,WNW,298,4.7,6.0,71,0.00,CLR,,0.01,0.0,WeatherDisplay:10.37,2013-11-07 01:14:00,
2013-11-06 19:19:00,39.2,30.6,30.20,WNW,298,3.7,5.0,71,0.00,CLR,,0.01,0.0,WeatherDisplay:10.37,2013-11-07 01:19:00,
2013-11-06 19:24:00,39.0,30.4,30.20,WNW,298,3.9,6.0,71,0.00,CLR,,0.01,0.0,WeatherDisplay:10.37,2013-11-07 01:24:00,
2013-11-06 19:29:00,38.9,30.3,30.21,WNW,298,4.1,5.8,71,0.00,CLR,,0.01,0.0,WeatherDisplay:10.37,2013-11-07 01:29:00,
2013-11-06 19:34:00,38.7,30.4,30.21,WNW,298,3.6,4.6,72,0.00,CLR,,0.01,0.0,WeatherDisplay:10.37,2013-11-07 01:34:00,
2013-11-06 19:39:00,38.6,30.4,30.22,WNW,298,3.6,5.0,72,0.00,CLR,,0.01,0.0,WeatherDisplay:10.37,2013-11-07 01:39:00,
2013-11-06 19:44:00,38.4,30.2,30.22,WNW,298,2.7,4.0,72,0.00,CLR,,0.01,0.0,WeatherDisplay:10.37,2013-11-07 01:44:00,
2013-11-06 19:49:00,38.3,31.4,30.22,WNW,298,2.9,4.6,76,0.00,CLR,,0.01,0.0,WeatherDisplay:10.37,2013-11-07 01:49:00,
2013-11-06 19:54:00,38.1,29.9,30.23,WNW,298,3.3,5.8,72,0.00,CLR,,0.01,0.0,WeatherDisplay:10.37,2013-11-07 01:54:00,
2013-11-06 19:59:00,38.0,29.8,30.23,WNW,298,3.6,5.0,72,0.00,CLR,,0.01,0.0,WeatherDisplay:10.37,2013-11-07 01:59:00,
2013-11-06 20:04:00,37.9,30.0,30.23,WNW,298,2.8,4.0,73,0.00,CLR,,0.01,0.0,WeatherDisplay:10.37,2013-11-07 02:04:00,
2013-11-06 20:09:00,37.8,29.9,30.23,WNW,298,2.2,3.5,73,0.00,CLR,,0.01,0.0,WeatherDisplay:10.37,2013-11-07 02:09:00,
2013-11-06 20:14:00,37.7,29.8,30.23,WNW,298,2.5,4.0,73,0.00,CLR,,0.01,0.0,WeatherDisplay:10.37,2013-11-07 02:14:00,
2013-11-06 20:19:00,37.5,29.6,30.23,WNW,298,2.9,3.5,73,0.00,CLR,,0.01,0.0,WeatherDisplay:10.37,2013-11-07 02:19:00,
2013-11-06 20:24:00,37.4,29.5,30.23,WNW,298,3.2,4.0,73,0.00,CLR,,0.01,0.0,WeatherDisplay:10.37,2013-11-07 02:24:00,
2013-11-06 20:29:00,37.3,29.4,30.23,WNW,298,3.1,4.0,73,0.00,CLR,,0.01,0.0,WeatherDisplay:10.37,2013-11-07 02:29:00,
2013-11-06 20:34:00,37.2,29.3,30.23,WNW,298,3.8,5.0,73,0.00,CLR,,0.01,0.0,WeatherDisplay:10.37,2013-11-07 02:34:00,
2013-11-06 20:39:00,37.1,29.6,30.23,WNW,298,3.0,4.6,74,0.00,CLR,,0.01,0.0,WeatherDisplay:10.37,2013-11-07 02:39:00,
2013-11-06 20:44:00,37.0,29.5,30.23,WNW,298,2.5,3.5,74,0.00,CLR,,0.01,0.0,WeatherDisplay:10.37,2013-11-07 02:44:00,
2013-11-06 20:49:00,36.8,29.3,30.24,WNW,298,2.8,3.5,74,0.00,CLR,,0.01,0.0,WeatherDisplay:10.37,2013-11-07 02:49:00,
2013-11-06 20:54:00,36.6,29.1,30.24,WNW,298,2.3,3.5,74,0.00,CLR,,0.01,0.0,WeatherDisplay:10.37,2013-11-07 02:54:00,
2013-11-06 20:59:00,36.5,29.3,30.24,WNW,298,1.6,2.3,75,0.00,CLR,,0.01,0.0,WeatherDisplay:10.37,2013-11-07 02:59:00,
2013-11-06 21:04:00,36.2,29.0,30.24,WNW,298,1.5,2.3,75,0.00,CLR,,0.01,0.0,WeatherDisplay:10.37,2013-11-07 03:04:00,
2013-11-06 21:09:00,36.0,28.8,30.24,WNW,298,1.0,3.5,75,0.00,CLR,,0.01,0.0,WeatherDisplay:10.37,2013-11-07 03:09:00,
2013-11-06 21:14:00,35.8,29.0,30.25,WNW,298,1.6,3.5,76,0.00,CLR,,0.01,0.0,WeatherDisplay:10.37,2013-11-07 03:14:00,
2013-11-06 21:19:00,35.6,28.8,30.25,WNW,298,2.1,3.5,76,0.00,CLR,,0.01,0.0,WeatherDisplay:10.37,2013-11-07 03:19:00,
2013-11-06 21:24:00,35.4,28.6,30.25,WNW,298,2.2,3.5,76,0.00,CLR,,0.01,0.0,WeatherDisplay:10.37,2013-11-07 03:24:00,
2013-11-06 21:29:00,35.2,28.7,30.25,WNW,298,1.9,3.5,77,0.00,CLR,,0.01,0.0,WeatherDisplay:10.37,2013-11-07 03:29:00,
2013-11-06 21:34:00,35.0,28.5,30.26,WNW,298,2.2,3.5,77,0.00,CLR,,0.01,0.0,WeatherDisplay:10.37,2013-11-07 03:34:00,
2013-11-06 21:39:00,34.9,28.4,30.26,WNW,298,2.0,3.5,77,0.00,CLR,,0.01,0.0,WeatherDisplay:10.37,2013-11-07 03:39:00,
2013-11-06 21:44:00,34.8,28.3,30.26,WNW,298,1.7,3.5,77,0.00,CLR,,0.01,0.0,WeatherDisplay:10.37,2013-11-07 03:44:00,
2013-11-06 21:49:00,34.7,28.2,30.26,WNW,298,1.5,3.5,77,0.00,CLR,,0.01,0.0,WeatherDisplay:10.37,2013-11-07 03:49:00,
2013-11-06 21:54:00,34.6,28.4,30.26,WNW,298,2.1,3.5,78,0.00,CLR,,0.01,0.0,WeatherDisplay:10.37,2013-11-07 03:54:00,
2013-11-06 21:59:00,34.5,28.3,30.26,WNW,298,1.5,2.3,78,0.00,CLR,,0.01,0.0,WeatherDisplay:10.37,2013-11-07 03:59:00,
2013-11-06 22:04:00,34.4,28.2,30.26,WNW,298,1.1,2.3,78,0.00,CLR,,0.01,0.0,WeatherDisplay:10.37,2013-11-07 04:04:00,
2013-11-06 22:09:00,34.4,28.2,30.26,WNW,298,0.5,2.3,78,0.00,CLR,,0.01,0.0,WeatherDisplay:10.37,2013-11-07 04:09:00,
2013-11-06 22:14:00,34.4,28.2,30.27,WNW,298,1.7,3.5,78,0.00,CLR,,0.01,0.0,WeatherDisplay:10.37,2013-11-07 04:14:00,
2013-11-06 22:19:00,34.1,28.0,30.27,WNW,298,0.8,3.5,78,0.00,CLR,,0.01,0.0,WeatherDisplay:10.37,2013-11-07 04:19:00,
2013-11-06 22:24:00,33.9,27.8,30.27,WNW,298,0.9,1.2,78,0.00,CLR,,0.01,0.0,WeatherDisplay:10.37,2013-11-07 04:24:00,
2013-11-06 22:29:00,33.8,28.0,30.27,WNW,298,0.5,1.2,79,0.00,CLR,,0.01,0.0,WeatherDisplay:10.37,2013-11-07 04:29:00,
2013-11-06 22:34:00,33.7,27.9,30.27,WNW,298,2.4,3.5,79,0.00,CLR,,0.01,0.0,WeatherDisplay:10.37,2013-11-07 04:34:00,
2013-11-06 22:39:00,33.6,27.8,30.27,WNW,298,1.9,3.5,79,0.00,CLR,,0.01,0.0,WeatherDisplay:10.37,2013-11-07 04:39:00,
2013-11-06 22:44:00,33.5,28.0,30.27,WNW,298,1.0,3.5,80,0.00,CLR,,0.01,0.0,WeatherDisplay:10.37,2013-11-07 04:44:00,
2013-11-06 22:49:00,33.5,28.0,30.27,WNW,298,0.0,0.0,80,0.00,CLR,,0.01,0.0,WeatherDisplay:10.37,2013-11-07 04:49:00,
2013-11-06 22:54:00,33.4,27.9,30.27,WNW,298,0.3,1.2,80,0.00,CLR,,0.01,0.0,WeatherDisplay:10.37,2013-11-07 04:54:00,
2013-11-06 22:59:00,33.3,27.8,30.27,WNW,298,0.2,2.3,80,0.00,CLR,,0.01,0.0,WeatherDisplay:10.37,2013-11-07 04:59:00,
2013-11-06 23:01:00,33.3,27.8,30.27,WNW,298,0.6,2.3,80,0.00,CLR,,0.01,0.0,WeatherDisplay:10.37,2013-11-07 05:01:00,
2013-11-06 23:02:00,33.2,27.7,30.27,WNW,298,0.3,1.2,80,0.00,CLR,,0.01,0.0,WeatherDisplay:10.37,2013-11-07 05:02:00,
2013-11-06 23:06:00,33.0,27.5,30.27,WNW,298,2.1,3.5,80,0.00,CLR,,0.01,0.0,WeatherDisplay:10.37,2013-11-07 05:06:00,
2013-11-06 23:11:00,32.9,27.4,30.27,WNW,298,0.9,2.3,80,0.00,CLR,,0.01,0.0,WeatherDisplay:10.37,2013-11-07 05:11:00,
2013-11-06 23:16:00,32.7,27.5,30.27,WNW,298,1.8,3.5,81,0.00,CLR,,0.01,0.0,WeatherDisplay:10.37,2013-11-07 05:16:00,
2013-11-06 23:21:00,32.6,27.4,30.27,WNW,298,2.4,3.5,81,0.00,CLR,,0.01,0.0,WeatherDisplay:10.37,2013-11-07 05:21:00,
2013-11-06 23:26:00,32.7,27.8,30.27,WNW,298,2.7,4.0,82,0.00,CLR,,0.01,0.0,WeatherDisplay:10.37,2013-11-07 05:26:00,
2013-11-06 23:31:00,32.7,27.8,30.27,WNW,298,2.8,4.0,82,0.00,CLR,,0.01,0.0,WeatherDisplay:10.37,2013-11-07 05:31:00,
2013-11-06 23:36:00,32.7,27.8,30.27,WNW,298,4.0,5.8,82,0.00,CLR,,0.01,0.0,WeatherDisplay:10.37,2013-11-07 05:36:00,
2013-11-06 23:41:00,32.7,27.8,30.27,WNW,298,3.1,4.0,82,0.00,CLR,,0.01,0.0,WeatherDisplay:10.37,2013-11-07 05:41:00,
2013-11-06 23:46:00,32.7,27.8,30.28,WNW,298,3.6,5.0,82,0.00,CLR,,0.01,0.0,WeatherDisplay:10.37,2013-11-07 05:46:00,
2013-11-06 23:51:00,32.8,27.6,30.28,WNW,298,3.3,4.0,81,0.00,CLR,,0.01,0.0,WeatherDisplay:10.37,2013-11-07 05:51:00,
2013-11-06 23:56:00,32.8,27.6,30.28,WNW,298,3.3,4.0,81,0.00,CLR,,0.01,0.0,WeatherDisplay:10.37,2013-11-07 05:56:00,